Simcha — PE7688 — position and weather

sailwx.info

Track history (hours):
 
Tides and Currents Weather Stations Pressure Air Temp Water Temp Dewpoint Dewpoint Depression Visibility Wind Speed Wind Dir Waves Ship Positions

Simcha

Last reported at 2017-Apr-28 02:00 UTC. Time now 2017-Apr-28 02:22 UTC.
Position N 52°35' E 005°52'.

Length 110 m.

Type: Ship. MMSI: 244780014.

Date/timePositionNaut miles runAvg speedWind from/ knotsBaromVisibWave heightAir tempDewpointWater temp
2017-Apr-28 02:00N 52°35' E 005°52'0 0.0
2017-Apr-28 01:30N 52°35' E 005°52'0 0.0
2017-Apr-28 01:01N 52°35' E 005°52'0 0.0
2017-Apr-28 00:30N 52°35' E 005°52'0 0.0
2017-Apr-28 00:01N 52°35' E 005°52'0 0.0
2017-Apr-27 23:31N 52°35' E 005°52'0 0.0
2017-Apr-27 23:01N 52°35' E 005°52'0 0.0
2017-Apr-27 22:30N 52°35' E 005°52'0 0.0
2017-Apr-27 22:00N 52°35' E 005°52'0 0.4
2017-Apr-27 21:31N 52°35' E 005°52'3 5.8
2017-Apr-27 21:01N 52°33' E 005°56'3 5.2
2017-Apr-27 20:30N 52°31' E 005°59'2 4.6
2017-Apr-27 20:00N 52°30' E 006°03'24 5.7
2017-Apr-27 15:47N 52°07' E 006°11'2 5.2
2017-Apr-27 15:27N 52°06' E 006°13'4 6.0
2017-Apr-27 14:49N 52°03' E 006°08'4 4.9
2017-Apr-27 14:00N 51°60' E 006°05'2 3.8
2017-Apr-27 13:31N 51°60' E 006°02'3 5.9
2017-Apr-27 13:01N 51°58' E 005°58'3 5.6
2017-Apr-27 12:31N 51°56' E 005°58'3 6.9
2017-Apr-27 12:00N 51°53' E 006°02'4 8.0
2017-Apr-27 11:30N 51°51' E 006°08'4 8.4
2017-Apr-27 11:01N 51°50' E 006°14'4 8.3
2017-Apr-27 10:31N 51°47' E 006°19'4 7.2
2017-Apr-27 10:00N 51°45' E 006°24'19 6.1
2017-Apr-27 06:52N 51°29' E 006°41'2 6.8
2017-Apr-27 06:30N 51°27' E 006°43'13 6.1
2017-Apr-27 04:18N 51°14' E 006°46'2 6.3
2017-Apr-27 04:00N 51°14' E 006°43'3 5.3
2017-Apr-27 03:31N 51°11' E 006°44'0 0.0
2017-Apr-27 03:01N 51°11' E 006°44'0 0.0
2017-Apr-27 02:30N 51°11' E 006°44'0 0.0
2017-Apr-27 02:01N 51°11' E 006°44'0 0.0
2017-Apr-27 01:31N 51°11' E 006°44'0 0.0
2017-Apr-27 01:01N 51°11' E 006°44'0 0.0
2017-Apr-27 00:31N 51°11' E 006°44'0 0.0
2017-Apr-27 00:01N 51°11' E 006°44'0 0.0
2017-Apr-26 23:30N 51°11' E 006°44'0 0.0
2017-Apr-26 23:01N 51°11' E 006°44'0 0.0
2017-Apr-26 22:31N 51°11' E 006°44'0 0.0
2017-Apr-26 22:01N 51°11' E 006°44'0 0.0
2017-Apr-26 21:31N 51°11' E 006°44'0 0.0
2017-Apr-26 21:01N 51°11' E 006°44'0 0.2
2017-Apr-26 20:31N 51°11' E 006°44'16 5.8
2017-Apr-26 17:42N 50°58' E 006°60'2 8.1
2017-Apr-26 17:27N 50°56' E 006°58'  
Track history (hours):
 
Tides and Currents Weather Stations Pressure Air Temp Water Temp Dewpoint Dewpoint Depression Visibility Wind Speed Wind Dir Waves Ship Positions

Simcha

Last reported at 2017-Apr-28 02:00 UTC. Time now 2017-Apr-28 02:22 UTC.
Position N 52°35' E 005°52'.

Length 110 m.

Type: Ship. MMSI: 244780014.

Date/timePositionNaut miles runAvg speedWind from/ knotsBaromVisibWave heightAir tempDewpointWater temp
2017-Apr-28 02:00N 52°35' E 005°52'0 0.0
2017-Apr-28 01:30N 52°35' E 005°52'0 0.0
2017-Apr-28 01:01N 52°35' E 005°52'0 0.0
2017-Apr-28 00:30N 52°35' E 005°52'0 0.0
2017-Apr-28 00:01N 52°35' E 005°52'0 0.0
2017-Apr-27 23:31N 52°35' E 005°52'0 0.0
2017-Apr-27 23:01N 52°35' E 005°52'0 0.0
2017-Apr-27 22:30N 52°35' E 005°52'0 0.0
2017-Apr-27 22:00N 52°35' E 005°52'0 0.4
2017-Apr-27 21:31N 52°35' E 005°52'3 5.8
2017-Apr-27 21:01N 52°33' E 005°56'3 5.2
2017-Apr-27 20:30N 52°31' E 005°59'2 4.6
2017-Apr-27 20:00N 52°30' E 006°03'24 5.7
2017-Apr-27 15:47N 52°07' E 006°11'2 5.2
2017-Apr-27 15:27N 52°06' E 006°13'4 6.0
2017-Apr-27 14:49N 52°03' E 006°08'4 4.9
2017-Apr-27 14:00N 51°60' E 006°05'2 3.8
2017-Apr-27 13:31N 51°60' E 006°02'3 5.9
2017-Apr-27 13:01N 51°58' E 005°58'3 5.6
2017-Apr-27 12:31N 51°56' E 005°58'3 6.9
2017-Apr-27 12:00N 51°53' E 006°02'4 8.0
2017-Apr-27 11:30N 51°51' E 006°08'4 8.4
2017-Apr-27 11:01N 51°50' E 006°14'4 8.3
2017-Apr-27 10:31N 51°47' E 006°19'4 7.2
2017-Apr-27 10:00N 51°45' E 006°24'19 6.1
2017-Apr-27 06:52N 51°29' E 006°41'2 6.8
2017-Apr-27 06:30N 51°27' E 006°43'13 6.1
2017-Apr-27 04:18N 51°14' E 006°46'2 6.3
2017-Apr-27 04:00N 51°14' E 006°43'3 5.3
2017-Apr-27 03:31N 51°11' E 006°44'0 0.0
2017-Apr-27 03:01N 51°11' E 006°44'0 0.0
2017-Apr-27 02:30N 51°11' E 006°44'0 0.0
2017-Apr-27 02:01N 51°11' E 006°44'0 0.0
2017-Apr-27 01:31N 51°11' E 006°44'0 0.0
2017-Apr-27 01:01N 51°11' E 006°44'0 0.0
2017-Apr-27 00:31N 51°11' E 006°44'0 0.0
2017-Apr-27 00:01N 51°11' E 006°44'0 0.0
2017-Apr-26 23:30N 51°11' E 006°44'0 0.0
2017-Apr-26 23:01N 51°11' E 006°44'0 0.0
2017-Apr-26 22:31N 51°11' E 006°44'0 0.0
2017-Apr-26 22:01N 51°11' E 006°44'0 0.0
2017-Apr-26 21:31N 51°11' E 006°44'0 0.0
2017-Apr-26 21:01N 51°11' E 006°44'0 0.2
2017-Apr-26 20:31N 51°11' E 006°44'16 5.8
2017-Apr-26 17:42N 50°58' E 006°60'2 8.1
2017-Apr-26 17:27N 50°56' E 006°58'  

Dump ship's entire track history